Time;durP1;ratioP1;P1;durP2;ratioP2;P2;SDS_P1;SDS_P2;PMS_P1;PMS_P2;Temp;Humidity;BMP_temperature;BMP_pressure;BME280_temperature;BME280_humidity;BME280_pressure;Samples;Min_cycle;Max_cycle;Signal;HPM_P1;HPM_P2
2023/04/11 00:00:45;;;;;;;13.97;2.13;;;9.80;99.90;;;;;;4838610;29;20520;-90
2023/04/11 00:03:11;;;;;;;12.18;1.88;;;9.80;99.90;;;;;;4839220;29;20422;-92
2023/04/11 00:05:36;;;;;;;12.63;2.15;;;9.60;99.90;;;;;;4837178;29;20430;-93
2023/04/11 00:08:02;;;;;;;13.80;1.97;;;9.50;99.90;;;;;;4839418;29;20422;-92
2023/04/11 00:10:27;;;;;;;14.73;1.80;;;10.10;99.90;;;;;;4837001;29;20570;-92
2023/04/11 00:12:56;;;;;;;11.27;1.35;;;9.40;99.90;;;;;;4839104;29;20434;-92
2023/04/11 00:15:23;;;;;;;13.13;1.80;;;9.60;99.90;;;;;;4837343;29;20441;-93
2023/04/11 00:17:49;;;;;;;12.93;1.80;;;9.30;99.90;;;;;;4838813;29;20430;-92
2023/04/11 00:20:15;;;;;;;12.57;1.87;;;9.20;99.90;;;;;;4838619;29;20426;-91
2023/04/11 00:22:42;;;;;;;15.43;2.00;;;9.20;99.90;;;;;;4837626;29;20430;-90
2023/04/11 00:25:08;;;;;;;16.07;2.40;;;9.10;99.90;;;;;;4839092;29;20430;-90
2023/04/11 00:27:34;;;;;;;19.77;2.63;;;9.00;99.90;;;;;;4837079;29;20425;-91
2023/04/11 00:30:00;;;;;;;16.80;2.57;;;9.20;99.90;;;;;;4839022;29;20441;-90
2023/04/11 00:32:25;;;;;;;17.73;2.20;;;8.90;99.90;;;;;;4837169;29;20649;-93
2023/04/11 00:34:51;;;;;;;16.80;1.70;;;8.90;99.90;;;;;;4839147;29;20423;-92
2023/04/11 00:37:20;;;;;;;15.68;1.92;;;8.90;99.90;;;;;;4837406;29;20418;-91
2023/04/11 00:39:49;;;;;;;15.68;2.00;;;9.10;99.90;;;;;;4837767;29;20424;-92
2023/04/11 00:42:15;;;;;;;15.20;1.80;;;8.80;99.90;;;;;;4841256;29;20422;-91
2023/04/11 00:44:41;;;;;;;17.38;2.30;;;8.80;99.90;;;;;;4840563;29;20433;-91
2023/04/11 00:47:07;;;;;;;16.85;1.83;;;9.10;99.90;;;;;;4842639;29;20430;-91
2023/04/11 00:49:34;;;;;;;13.82;1.83;;;8.70;99.90;;;;;;4840029;29;20981;-90
2023/04/11 00:52:01;;;;;;;12.63;1.42;;;9.00;99.90;;;;;;4842330;29;20426;-92
2023/04/11 00:54:29;;;;;;;10.10;1.40;;;8.70;99.90;;;;;;4840600;29;20525;-90
2023/04/11 00:56:59;;;;;;;10.50;1.00;;;8.60;99.90;;;;;;4841614;29;20414;-92
2023/04/11 00:59:27;;;;;;;8.57;0.88;;;8.60;99.90;;;;;;4841984;29;20444;-90
2023/04/11 01:01:53;;;;;;;9.07;0.90;;;8.90;99.90;;;;;;4840029;29;20505;-91
2023/04/11 01:04:20;;;;;;;7.33;0.87;;;8.90;99.90;;;;;;4842010;29;20509;-91
2023/04/11 01:06:50;;;;;;;7.65;0.88;;;9.00;99.90;;;;;;4839637;29;20474;-91
2023/04/11 01:09:16;;;;;;;9.02;0.65;;;8.60;99.90;;;;;;4834710;29;20466;-94
2023/04/11 01:11:42;;;;;;;6.70;0.70;;;9.00;99.90;;;;;;4840413;29;20454;-90
2023/04/11 01:14:07;;;;;;;6.90;0.53;;;8.40;99.90;;;;;;4867817;29;20485;-91
2023/04/11 01:16:33;;;;;;;10.93;0.77;;;8.70;99.90;;;;;;4843900;29;20909;-92
2023/04/11 01:18:59;;;;;;;9.68;1.20;;;8.50;99.90;;;;;;4843114;29;20509;-91
2023/04/11 01:21:26;;;;;;;7.90;0.65;;;8.50;99.90;;;;;;4847192;29;20473;-94
2023/04/11 01:23:53;;;;;;;6.40;0.47;;;8.40;99.90;;;;;;4841975;29;21204;-94
2023/04/11 01:26:19;;;;;;;8.37;0.73;;;8.60;99.90;;;;;;4843442;29;20599;-92
2023/04/11 01:28:45;;;;;;;9.40;0.60;;;8.40;99.90;;;;;;4848235;29;20455;-93
2023/04/11 01:31:10;;;;;;;8.80;0.83;;;8.30;99.90;;;;;;4842963;29;20456;-93
2023/04/11 01:33:36;;;;;;;6.73;0.90;;;8.50;99.90;;;;;;4842095;29;20466;-94
2023/04/11 01:36:02;;;;;;;8.23;0.63;;;8.40;99.90;;;;;;4843435;29;20445;-91
2023/04/11 01:38:28;;;;;;;8.30;0.70;;;8.30;99.90;;;;;;4843243;29;20501;-90
2023/04/11 01:41:00;;;;;;;9.63;0.90;;;8.40;99.90;;;;;;4842657;29;20424;-93
2023/04/11 01:43:26;;;;;;;7.40;0.70;;;8.30;99.90;;;;;;4844166;29;20421;-95
2023/04/11 01:45:52;;;;;;;6.47;0.70;;;8.50;99.90;;;;;;4841442;29;20409;-91
2023/04/11 01:48:19;;;;;;;8.77;0.80;;;8.50;99.90;;;;;;4844131;29;20424;-95
2023/04/11 01:50:45;;;;;;;8.98;0.82;;;8.30;99.90;;;;;;4842480;29;20982;-92
2023/04/11 01:53:11;;;;;;;9.13;0.90;;;8.10;99.90;;;;;;4848579;29;20479;-94
2023/04/11 01:55:36;;;;;;;8.93;1.00;;;8.20;99.90;;;;;;4861102;29;20828;-93
2023/04/11 01:58:02;;;;;;;7.45;0.80;;;8.20;99.90;;;;;;4862421;29;20431;-92
2023/04/11 02:00:27;;;;;;;8.37;0.87;;;8.10;99.90;;;;;;4861467;29;20411;-92
2023/04/11 02:02:53;;;;;;;5.43;0.63;;;8.30;99.90;;;;;;4860934;29;20415;-93
2023/04/11 02:05:19;;;;;;;7.28;0.70;;;8.00;99.90;;;;;;4862116;29;20441;-92
2023/04/11 02:07:45;;;;;;;5.72;0.55;;;7.80;99.90;;;;;;4860985;29;20419;-92
2023/04/11 02:10:10;;;;;;;4.45;0.50;;;8.00;99.90;;;;;;4862275;29;20479;-91
2023/04/11 02:12:36;;;;;;;5.77;0.67;;;8.10;99.90;;;;;;4859903;29;20439;-92
2023/04/11 02:15:02;;;;;;;8.13;0.60;;;8.10;99.90;;;;;;4861691;29;20415;-91
2023/04/11 02:17:29;;;;;;;5.45;0.68;;;8.00;99.90;;;;;;4860633;29;20427;-93
2023/04/11 02:20:09;;;;;;;5.93;0.60;;;8.10;99.90;;;;;;4860928;29;20414;-94
2023/04/11 02:22:34;;;;;;;5.70;0.50;;;8.00;99.90;;;;;;4861259;29;20990;-93
2023/04/11 02:25:00;;;;;;;6.20;0.60;;;8.00;99.90;;;;;;4859933;29;20415;-93
2023/04/11 02:27:26;;;;;;;5.60;0.70;;;8.00;99.90;;;;;;4861531;29;20410;-93
2023/04/11 02:29:51;;;;;;;6.53;0.50;;;7.90;99.90;;;;;;4859629;29;20419;-93
2023/04/11 02:32:26;;;;;;;7.95;1.10;;;8.00;99.90;;;;;;4861516;29;20427;-94
2023/04/11 02:34:52;;;;;;;7.50;1.10;;;8.20;99.90;;;;;;4860722;29;20426;-95
2023/04/11 02:37:18;;;;;;;7.80;0.93;;;7.90;99.90;;;;;;4861513;29;20455;-94
2023/04/11 02:39:44;;;;;;;8.75;1.02;;;8.00;99.90;;;;;;4860832;29;20411;-94
2023/04/11 02:42:12;;;;;;;7.97;1.05;;;8.00;99.90;;;;;;4859716;29;20429;-94
2023/04/11 02:44:37;;;;;;;11.45;1.08;;;7.90;99.90;;;;;;4862062;29;20427;-94
2023/04/11 02:47:03;;;;;;;9.00;1.43;;;7.80;99.90;;;;;;4859474;29;20422;-93
2023/04/11 02:49:29;;;;;;;9.50;1.27;;;7.90;99.90;;;;;;4861184;29;20725;-93
2023/04/11 02:51:55;;;;;;;10.15;1.50;;;8.50;99.90;;;;;;4859486;29;20422;-92
2023/04/11 02:54:20;;;;;;;10.07;1.33;;;7.90;99.90;;;;;;4860291;29;20567;-93
2023/04/11 02:56:46;;;;;;;11.33;1.90;;;7.90;99.90;;;;;;4860382;29;20829;-95
2023/04/11 02:59:11;;;;;;;9.20;1.10;;;8.00;99.90;;;;;;4860168;29;20472;-91
2023/04/11 03:01:37;;;;;;;8.25;1.13;;;7.90;99.90;;;;;;4860776;29;20423;-93
2023/04/11 03:04:03;;;;;;;12.43;1.20;;;8.00;99.90;;;;;;4858756;29;20411;-93
2023/04/11 03:06:29;;;;;;;11.10;1.53;;;8.00;99.90;;;;;;4860967;29;20850;-93
2023/04/11 03:08:54;;;;;;;12.90;1.97;;;7.70;99.90;;;;;;4858916;29;20501;-92
2023/04/11 03:11:20;;;;;;;11.85;1.65;;;7.70;99.90;;;;;;4861157;29;20419;-95
2023/04/11 03:13:46;;;;;;;8.65;1.70;;;8.00;99.90;;;;;;4860161;29;20895;-93
2023/04/11 03:16:14;;;;;;;8.80;1.38;;;8.00;99.90;;;;;;4862999;29;20482;-93
2023/04/11 03:18:40;;;;;;;10.13;1.48;;;8.10;99.90;;;;;;4860157;29;20842;-92
2023/04/11 03:21:09;;;;;;;11.77;1.23;;;8.30;99.90;;;;;;4859925;29;20415;-93
2023/04/11 03:23:35;;;;;;;10.65;1.50;;;8.00;99.90;;;;;;4860449;29;20423;-93
2023/04/11 03:26:01;;;;;;;9.02;1.10;;;8.00;99.90;;;;;;4859352;29;20841;-93
2023/04/11 03:28:32;;;;;;;11.32;1.60;;;7.90;99.90;;;;;;4859005;29;20416;-93
2023/04/11 03:30:58;;;;;;;10.00;1.60;;;8.10;99.90;;;;;;4840674;29;20431;-93
2023/04/11 03:33:24;;;;;;;10.10;1.70;;;8.20;99.90;;;;;;4842754;29;20440;-93
2023/04/11 03:35:50;;;;;;;9.73;1.47;;;8.10;99.90;;;;;;4840662;29;20429;-92
2023/04/11 03:38:15;;;;;;;8.25;1.70;;;8.00;99.90;;;;;;4841935;29;20869;-93
2023/04/11 03:40:41;;;;;;;9.38;1.42;;;8.10;99.90;;;;;;4846960;29;20429;-93
2023/04/11 03:43:07;;;;;;;8.90;1.27;;;8.20;99.90;;;;;;4841287;29;20435;-93
2023/04/11 03:45:33;;;;;;;9.38;1.63;;;8.20;99.90;;;;;;4842269;29;20409;-93
2023/04/11 03:47:58;;;;;;;12.30;1.57;;;8.10;99.90;;;;;;4840343;29;20413;-92
2023/04/11 03:50:24;;;;;;;12.70;1.60;;;8.40;99.90;;;;;;4842167;29;20421;-90
2023/04/11 03:52:50;;;;;;;10.88;1.70;;;8.20;99.90;;;;;;4840957;29;20950;-91
2023/04/11 03:55:22;;;;;;;11.57;1.47;;;8.10;99.90;;;;;;4842955;29;20421;-94
2023/04/11 03:57:47;;;;;;;9.18;1.33;;;8.20;99.90;;;;;;4840683;29;20429;-91
2023/04/11 04:00:13;;;;;;;11.63;1.80;;;8.40;99.90;;;;;;4842880;29;20436;-92
2023/04/11 04:02:39;;;;;;;8.88;1.60;;;8.20;99.90;;;;;;4841638;29;20486;-91
2023/04/11 04:05:05;;;;;;;11.50;1.70;;;8.20;99.90;;;;;;4841747;29;20483;-94
2023/04/11 04:07:31;;;;;;;11.60;1.88;;;8.10;99.90;;;;;;4841648;29;20496;-91
2023/04/11 04:09:57;;;;;;;10.55;1.85;;;8.30;99.90;;;;;;4840883;29;20448;-94
2023/04/11 04:12:28;;;;;;;10.30;2.23;;;8.50;99.90;;;;;;4843355;29;20413;-94
2023/04/11 04:14:53;;;;;;;10.70;2.20;;;8.10;99.90;;;;;;4840161;29;20433;-93
2023/04/11 04:17:19;;;;;;;12.50;2.50;;;8.10;99.90;;;;;;4846389;29;20431;-91
2023/04/11 04:19:45;;;;;;;9.43;2.42;;;7.80;99.90;;;;;;4843903;29;20456;-93
2023/04/11 04:22:12;;;;;;;10.83;2.10;;;8.10;99.90;;;;;;4845866;29;20451;-93
2023/04/11 04:24:38;;;;;;;13.83;2.70;;;8.20;99.90;;;;;;4844474;29;20416;-92
2023/04/11 04:27:07;;;;;;;8.68;1.80;;;8.00;99.90;;;;;;4845233;29;20427;-92
2023/04/11 04:29:37;;;;;;;9.87;1.63;;;8.10;99.90;;;;;;4846265;29;20424;-92
2023/04/11 04:32:11;;;;;;;11.30;1.90;;;8.00;99.90;;;;;;4843754;29;20459;-94
2023/04/11 04:34:48;;;;;;;11.03;2.03;;;8.00;99.90;;;;;;4845455;29;20651;-93
2023/04/11 04:37:21;;;;;;;11.23;2.05;;;8.60;99.90;;;;;;4843405;29;20464;-92
2023/04/11 04:39:52;;;;;;;10.63;2.05;;;7.90;99.90;;;;;;4845406;29;20435;-92
2023/04/11 04:42:20;;;;;;;11.57;1.85;;;8.20;99.90;;;;;;4855295;29;20451;-92
2023/04/11 04:44:46;;;;;;;14.02;1.92;;;8.10;99.90;;;;;;4854096;29;20763;-93
2023/04/11 04:47:11;;;;;;;12.07;2.30;;;8.20;99.90;;;;;;4852640;29;20519;-91
2023/04/11 04:49:37;;;;;;;11.30;2.40;;;8.00;99.90;;;;;;4858437;29;20460;-92
2023/04/11 04:52:03;;;;;;;9.35;1.98;;;7.90;99.90;;;;;;4860797;29;20416;-93
2023/04/11 04:54:30;;;;;;;11.27;2.30;;;7.90;99.90;;;;;;4858303;29;20440;-92
2023/04/11 04:56:56;;;;;;;13.48;2.78;;;8.50;99.90;;;;;;4862843;29;20436;-92
2023/04/11 04:59:23;;;;;;;12.80;2.67;;;8.00;99.90;;;;;;4859038;29;20423;-94
2023/04/11 05:01:52;;;;;;;15.75;3.05;;;7.90;99.90;;;;;;4860858;29;20441;-93
2023/04/11 05:04:18;;;;;;;15.13;2.50;;;8.10;99.90;;;;;;4859420;29;20515;-93
2023/04/11 05:06:44;;;;;;;14.33;2.90;;;8.00;99.90;;;;;;4844659;29;20526;-91
2023/04/11 05:09:10;;;;;;;13.10;2.90;;;7.80;99.90;;;;;;4860977;29;20545;-91
2023/04/11 05:11:36;;;;;;;15.88;3.20;;;8.00;99.90;;;;;;4862015;29;20926;-92
2023/04/11 05:14:01;;;;;;;16.77;3.47;;;7.90;99.90;;;;;;4845368;29;20440;-92
2023/04/11 05:16:27;;;;;;;13.73;2.83;;;7.80;99.90;;;;;;4844913;29;20416;-92
2023/04/11 05:19:12;;;;;;;17.35;3.53;;;7.50;99.90;;;;;;4849271;29;20472;-94
2023/04/11 05:21:41;;;;;;;17.27;3.70;;;7.50;99.90;;;;;;4845634;29;20425;-93
2023/04/11 05:24:07;;;;;;;17.20;3.63;;;7.50;99.90;;;;;;4845941;29;20416;-92
2023/04/11 05:26:35;;;;;;;17.27;3.85;;;7.50;99.90;;;;;;4844165;29;20416;-91
2023/04/11 05:29:01;;;;;;;19.48;3.80;;;7.50;99.90;;;;;;4845842;29;20425;-94
2023/04/11 05:31:30;;;;;;;18.20;4.13;;;7.60;99.90;;;;;;4865882;29;20439;-94
2023/04/11 05:33:56;;;;;;;16.40;3.37;;;7.70;99.90;;;;;;4863433;29;20964;-92
2023/04/11 05:36:22;;;;;;;17.50;3.25;;;7.70;99.90;;;;;;4864082;29;20450;-92
2023/04/11 05:38:53;;;;;;;15.90;2.90;;;7.80;99.90;;;;;;4862825;29;20419;-92
2023/04/11 05:41:19;;;;;;;15.80;3.30;;;7.50;99.90;;;;;;4879764;29;20455;-90
2023/04/11 05:43:45;;;;;;;12.75;3.20;;;7.80;99.90;;;;;;4864661;29;20419;-90
2023/04/11 05:46:11;;;;;;;16.73;3.50;;;7.60;99.90;;;;;;4865207;29;20739;-91
2023/04/11 05:48:40;;;;;;;17.38;4.00;;;8.20;99.90;;;;;;4861837;29;21012;-94
2023/04/11 05:51:06;;;;;;;15.02;3.35;;;7.60;99.90;;;;;;4866066;29;20419;-92
2023/04/11 05:53:32;;;;;;;15.05;3.38;;;7.60;99.90;;;;;;4861634;29;20443;-93
2023/04/11 05:56:00;;;;;;;15.77;3.50;;;7.40;99.90;;;;;;4863272;29;20426;-93
2023/04/11 05:58:35;;;;;;;15.38;3.60;;;7.50;99.90;;;;;;4863313;29;20495;-94
2023/04/11 06:01:00;;;;;;;19.15;3.50;;;7.60;99.90;;;;;;4864307;29;20419;-94
2023/04/11 06:03:32;;;;;;;15.55;3.20;;;7.70;99.90;;;;;;4864935;29;20419;-94
2023/04/11 06:05:59;;;;;;;16.50;3.07;;;7.70;99.90;;;;;;4863288;29;20449;-93
2023/04/11 06:08:33;;;;;;;14.97;3.03;;;8.00;99.90;;;;;;4864572;29;20849;-95
2023/04/11 06:11:02;;;;;;;17.08;2.90;;;7.70;99.90;;;;;;4865745;29;20891;-94
2023/04/11 06:13:30;;;;;;;17.80;2.77;;;7.70;99.90;;;;;;4861427;29;20450;-94
2023/04/11 06:15:56;;;;;;;14.50;2.53;;;7.80;99.90;;;;;;4862597;29;20482;-93
2023/04/11 06:18:21;;;;;;;17.83;2.43;;;8.20;99.90;;;;;;4863697;29;20879;-94
2023/04/11 06:20:53;;;;;;;16.93;2.30;;;7.80;99.90;;;;;;4864243;29;20979;-94
2023/04/11 06:23:18;;;;;;;17.30;2.65;;;8.20;99.90;;;;;;4862639;29;20486;-94
2023/04/11 06:25:44;;;;;;;13.27;2.13;;;8.00;99.90;;;;;;4861313;29;20423;-91
2023/04/11 06:28:10;;;;;;;14.77;2.25;;;8.00;99.90;;;;;;4862286;29;20749;-93
2023/04/11 06:30:36;;;;;;;14.40;2.77;;;8.30;99.90;;;;;;4860206;29;20971;-94
2023/04/11 06:33:01;;;;;;;13.90;1.95;;;8.40;99.90;;;;;;4864083;29;20435;-91
2023/04/11 06:35:27;;;;;;;14.63;2.83;;;8.00;99.90;;;;;;4860513;29;20476;-91
2023/04/11 06:37:52;;;;;;;12.63;2.00;;;8.70;99.90;;;;;;4848953;29;21213;-93
2023/04/11 06:40:21;;;;;;;12.63;1.90;;;8.10;99.90;;;;;;4842414;29;20855;-92
2023/04/11 06:42:47;;;;;;;9.95;1.90;;;8.20;99.90;;;;;;4843240;29;20537;-91
2023/04/11 06:45:13;;;;;;;13.00;2.20;;;7.80;99.90;;;;;;4843394;29;20425;-94
2023/04/11 06:47:39;;;;;;;13.30;2.70;;;8.40;99.90;;;;;;4841714;29;20418;-94
2023/04/11 06:50:05;;;;;;;13.43;2.00;;;8.40;99.90;;;;;;4842803;29;20408;-94
2023/04/11 06:52:31;;;;;;;13.20;1.90;;;8.40;99.90;;;;;;4841857;29;20831;-94
2023/04/11 06:54:56;;;;;;;14.20;2.20;;;8.30;99.90;;;;;;4843180;29;20424;-90
2023/04/11 06:57:22;;;;;;;12.63;1.77;;;8.60;99.90;;;;;;4841356;29;20440;-94
2023/04/11 06:59:48;;;;;;;15.90;2.00;;;9.30;99.90;;;;;;4842102;29;20503;-94
2023/04/11 07:02:14;;;;;;;12.27;1.65;;;8.30;99.90;;;;;;4842031;29;20823;-93
2023/04/11 07:04:40;;;;;;;13.77;2.00;;;8.90;99.90;;;;;;4841837;29;20918;-91
2023/04/11 07:07:09;;;;;;;12.50;1.90;;;8.80;99.90;;;;;;4842485;29;20427;-95
2023/04/11 07:09:35;;;;;;;13.43;2.33;;;8.70;99.90;;;;;;4841138;29;20425;-93
2023/04/11 07:12:01;;;;;;;14.13;1.95;;;8.80;99.90;;;;;;4842078;29;20794;-93
2023/04/11 07:14:27;;;;;;;12.82;2.03;;;8.90;99.90;;;;;;4839973;29;20459;-92
2023/04/11 07:16:52;;;;;;;12.02;2.30;;;9.00;99.90;;;;;;4841492;29;20921;-92
2023/04/11 07:19:18;;;;;;;12.10;2.00;;;9.90;99.90;;;;;;4840990;29;20437;-94
2023/04/11 07:21:44;;;;;;;11.77;1.67;;;9.30;99.90;;;;;;4842171;29;20778;-93
2023/04/11 07:24:12;;;;;;;11.40;2.10;;;9.30;99.90;;;;;;4841651;29;20480;-95
2023/04/11 07:26:40;;;;;;;11.15;1.60;;;9.30;99.90;;;;;;4841603;29;20428;-92
2023/04/11 07:29:06;;;;;;;17.13;2.45;;;8.90;99.90;;;;;;4842421;29;20429;-94
2023/04/11 07:31:32;;;;;;;13.87;1.93;;;9.10;99.90;;;;;;4841030;29;20516;-95
2023/04/11 07:33:58;;;;;;;13.80;2.00;;;9.10;99.90;;;;;;4843246;29;20459;-94
2023/04/11 07:36:23;;;;;;;13.50;2.03;;;8.60;99.90;;;;;;4841458;29;20539;-92
2023/04/11 07:38:51;;;;;;;16.77;2.70;;;8.30;99.90;;;;;;4841834;29;20421;-92
2023/04/11 07:41:16;;;;;;;13.60;2.30;;;8.20;99.90;;;;;;4841862;29;20433;-93
2023/04/11 07:43:42;;;;;;;13.27;2.22;;;7.90;99.90;;;;;;4841737;29;20425;-89
2023/04/11 07:46:08;;;;;;;18.03;2.50;;;8.00;99.90;;;;;;4841055;29;20523;-91
2023/04/11 07:48:33;;;;;;;16.87;2.87;;;8.00;99.90;;;;;;4841593;29;20934;-93
2023/04/11 07:50:59;;;;;;;14.95;2.30;;;7.80;99.90;;;;;;4842177;29;20425;-92
2023/04/11 07:53:25;;;;;;;14.77;1.70;;;7.80;99.90;;;;;;4840555;29;20934;-92
2023/04/11 07:55:51;;;;;;;16.48;2.20;;;8.20;99.90;;;;;;4842031;29;20783;-92
2023/04/11 07:58:16;;;;;;;16.35;2.22;;;8.20;99.90;;;;;;4840794;29;20440;-92
2023/04/11 08:00:49;;;;;;;12.50;1.90;;;8.10;99.90;;;;;;4842233;29;20438;-93
2023/04/11 08:03:16;;;;;;;14.10;1.85;;;8.40;99.90;;;;;;4841093;29;20420;-90
2023/04/11 08:05:41;;;;;;;14.30;2.30;;;8.70;99.90;;;;;;4840797;29;20417;-94
2023/04/11 08:08:07;;;;;;;14.23;2.50;;;9.00;99.90;;;;;;4842083;29;20443;-93
2023/04/11 08:10:33;;;;;;;10.70;1.83;;;9.10;99.90;;;;;;4841241;29;20786;-92
2023/04/11 08:12:59;;;;;;;10.60;1.77;;;8.80;99.90;;;;;;4842504;29;20444;-92
2023/04/11 08:15:27;;;;;;;10.73;1.52;;;9.10;99.90;;;;;;4842853;29;21185;-93
2023/04/11 08:17:56;;;;;;;11.60;1.60;;;9.10;99.90;;;;;;4843196;29;20423;-89
2023/04/11 08:20:25;;;;;;;9.73;1.58;;;9.00;99.90;;;;;;4840771;29;20432;-92
2023/04/11 08:22:50;;;;;;;10.75;1.65;;;9.00;99.90;;;;;;4842141;29;20472;-94
2023/04/11 08:25:18;;;;;;;9.52;1.30;;;9.20;99.90;;;;;;4841467;29;20424;-91
2023/04/11 08:27:44;;;;;;;11.30;1.50;;;9.10;99.90;;;;;;4841614;29;20859;-91
2023/04/11 08:30:10;;;;;;;10.07;1.75;;;9.20;99.90;;;;;;4841005;29;20511;-92
2023/04/11 08:32:37;;;;;;;8.18;1.48;;;9.40;99.90;;;;;;4856092;29;20756;-91
2023/04/11 08:35:03;;;;;;;5.35;0.65;;;9.90;99.90;;;;;;4849905;29;20924;-91
2023/04/11 08:37:29;;;;;;;8.00;1.27;;;9.10;99.90;;;;;;4858512;29;20458;-95
2023/04/11 08:39:57;;;;;;;8.75;1.58;;;9.00;99.90;;;;;;4859974;29;20419;-93
2023/04/11 08:42:27;;;;;;;12.25;2.00;;;8.60;99.90;;;;;;4858900;29;20928;-90
2023/04/11 08:44:57;;;;;;;12.23;1.70;;;9.30;99.90;;;;;;4859983;29;20419;-94
2023/04/11 08:47:26;;;;;;;10.70;1.37;;;9.20;99.90;;;;;;4859909;29;20414;-92
2023/04/11 08:49:53;;;;;;;9.53;1.57;;;9.50;99.90;;;;;;4860608;29;20423;-94
2023/04/11 08:52:19;;;;;;;10.32;1.30;;;10.50;99.90;;;;;;4859801;29;20463;-89
2023/04/11 08:54:46;;;;;;;10.30;1.50;;;10.10;99.90;;;;;;4858672;29;20665;-92
2023/04/11 08:57:31;;;;;;;8.30;0.80;;;10.40;99.90;;;;;;4860625;29;20415;-92
2023/04/11 08:59:59;;;;;;;9.65;1.00;;;10.40;99.90;;;;;;4858885;29;20951;-92
2023/04/11 09:02:26;;;;;;;10.25;1.40;;;10.30;99.90;;;;;;4861079;29;20415;-94
2023/04/11 09:04:56;;;;;;;12.23;1.52;;;10.50;99.90;;;;;;4879247;29;20796;-93
2023/04/11 09:07:23;;;;;;;7.75;1.20;;;10.40;99.90;;;;;;4864009;29;20454;-92
2023/04/11 09:09:49;;;;;;;10.02;1.00;;;10.40;99.90;;;;;;4862659;29;20907;-94
2023/04/11 09:12:20;;;;;;;9.30;0.90;;;10.10;99.90;;;;;;4862296;29;20411;-93
2023/04/11 09:14:46;;;;;;;9.90;1.45;;;9.80;99.90;;;;;;4864417;29;20443;-91
2023/04/11 09:17:15;;;;;;;10.80;1.30;;;9.60;99.90;;;;;;4861063;29;20435;-93
2023/04/11 09:19:41;;;;;;;12.88;2.22;;;8.10;99.90;;;;;;4844851;29;20477;-94
2023/04/11 09:22:08;;;;;;;13.98;2.38;;;8.50;99.90;;;;;;4846801;29;20425;-94
2023/04/11 09:24:34;;;;;;;12.33;1.93;;;8.70;99.90;;;;;;4863228;29;20421;-93
2023/04/11 09:27:15;;;;;;;14.43;2.20;;;8.80;99.90;;;;;;4861480;29;20501;-93
2023/04/11 09:29:44;;;;;;;12.90;1.50;;;9.30;99.90;;;;;;4862734;29;20761;-94
2023/04/11 09:32:33;;;;;;;11.10;1.55;;;9.20;99.90;;;;;;4865398;29;20826;-93
2023/04/11 09:35:15;;;;;;;9.80;1.03;;;9.30;99.90;;;;;;4881361;29;20519;-93
2023/04/11 09:37:45;;;;;;;5.72;0.45;;;8.80;99.90;;;;;;4867870;29;20907;-93
2023/04/11 09:40:13;;;;;;;8.63;1.10;;;8.30;99.90;;;;;;4863575;29;20514;-92
2023/04/11 09:42:42;;;;;;;10.03;1.00;;;7.90;99.90;;;;;;4863293;29;20418;-92
2023/04/11 09:45:22;;;;;;;10.70;1.20;;;7.70;99.90;;;;;;4867687;29;20430;-94
2023/04/11 09:47:50;;;;;;;7.22;0.57;;;8.10;99.90;;;;;;4866732;29;21166;-91
2023/04/11 09:56:03;;;;;;;10.52;1.45;;;6.90;99.90;;;;;;5175219;23;20451;-93
2023/04/11 09:58:31;;;;;;;12.68;2.03;;;6.90;99.90;;;;;;4875330;29;20423;-93
2023/04/11 10:01:07;;;;;;;10.48;1.80;;;7.70;99.90;;;;;;4870207;29;20924;-93
2023/04/11 10:03:38;;;;;;;13.95;2.08;;;6.90;99.90;;;;;;4901445;29;20931;-94
2023/04/11 10:06:47;;;;;;;8.93;1.48;;;6.90;99.90;;;;;;4891010;29;20495;-94
2023/04/11 10:09:46;;;;;;;10.70;1.40;;;6.50;99.90;;;;;;4885643;29;20423;-95
2023/04/11 10:12:30;;;;;;;7.60;1.27;;;6.70;99.90;;;;;;4874701;29;20499;-94
2023/04/11 10:15:13;;;;;;;8.50;0.93;;;6.70;99.90;;;;;;4855992;29;20438;-95
2023/04/11 10:17:47;;;;;;;6.50;0.57;;;6.60;99.90;;;;;;4879875;29;20423;-96
2023/04/11 10:20:37;;;;;;;9.20;0.80;;;7.10;99.90;;;;;;4880808;29;20897;-92
2023/04/11 10:23:15;;;;;;;8.45;1.10;;;6.50;99.90;;;;;;4882387;29;20867;-95
2023/04/11 10:26:10;;;;;;;6.40;0.82;;;6.50;99.90;;;;;;4883955;29;20413;-93
2023/04/11 10:28:44;;;;;;;6.03;0.70;;;6.50;99.90;;;;;;4904965;29;20427;-94
2023/04/11 10:31:16;;;;;;;7.47;0.95;;;6.70;99.90;;;;;;4905437;29;20487;-95
2023/04/11 10:34:21;;;;;;;11.45;1.70;;;6.70;99.90;;;;;;4903008;29;20443;-95
2023/04/11 10:37:03;;;;;;;12.43;1.80;;;6.50;99.90;;;;;;4891799;29;20442;-92
2023/04/11 10:39:50;;;;;;;7.82;1.00;;;7.00;99.90;;;;;;4879680;29;20433;-93
2023/04/11 10:42:33;;;;;;;9.82;1.10;;;7.00;99.90;;;;;;4884452;29;20515;-93
2023/04/11 10:45:25;;;;;;;7.82;0.80;;;7.10;99.90;;;;;;4881014;29;20421;-93
2023/04/11 10:47:51;;;;;;;7.15;0.77;;;7.10;99.90;;;;;;4879900;29;20429;-92
2023/04/11 10:50:28;;;;;;;9.45;0.80;;;7.20;99.90;;;;;;4880838;29;20461;-94
2023/04/11 10:52:55;;;;;;;11.15;1.67;;;7.30;99.90;;;;;;4877718;29;20441;-93
2023/04/11 10:55:21;;;;;;;12.63;1.60;;;7.50;99.90;;;;;;4875026;29;20438;-93
2023/04/11 10:58:10;;;;;;;11.13;2.10;;;7.80;99.90;;;;;;4859305;29;20471;-94
2023/04/11 11:00:45;;;;;;;12.50;1.95;;;8.20;99.90;;;;;;4861644;29;20423;-95
2023/04/11 11:03:14;;;;;;;10.27;2.10;;;9.10;99.90;;;;;;4861243;29;20427;-93
2023/04/11 11:05:40;;;;;;;9.55;1.63;;;9.00;99.90;;;;;;4860986;29;20451;-92
2023/04/11 11:08:07;;;;;;;9.88;0.93;;;9.30;99.90;;;;;;4862765;29;20423;-94
2023/04/11 11:10:44;;;;;;;8.13;0.85;;;9.30;99.90;;;;;;4859298;29;20431;-96
2023/04/11 11:13:15;;;;;;;7.85;0.80;;;9.00;99.90;;;;;;4862641;29;20535;-94
2023/04/11 11:15:49;;;;;;;7.00;0.88;;;8.80;99.90;;;;;;4859929;29;20434;-93
2023/04/11 11:18:16;;;;;;;6.53;0.85;;;8.80;99.90;;;;;;4861816;29;20967;-92
2023/04/11 11:20:42;;;;;;;6.72;0.77;;;8.60;99.90;;;;;;4861113;29;20522;-94
2023/04/11 11:23:10;;;;;;;6.67;0.73;;;8.60;99.90;;;;;;4860314;29;20485;-93
2023/04/11 11:25:37;;;;;;;9.27;1.15;;;8.80;99.90;;;;;;4861043;29;21001;-94
2023/04/11 11:28:07;;;;;;;11.57;1.33;;;9.50;99.90;;;;;;4859086;29;20438;-95
2023/04/11 11:30:34;;;;;;;9.20;1.10;;;9.70;99.90;;;;;;4861236;29;20438;-93
2023/04/11 11:33:17;;;;;;;9.68;1.10;;;10.80;99.90;;;;;;4859113;29;20443;-92
2023/04/11 11:36:01;;;;;;;10.27;0.82;;;11.00;99.90;;;;;;4861024;29;20419;-91
2023/04/11 11:38:29;;;;;;;10.30;1.60;;;11.40;99.90;;;;;;4861416;29;20521;-94
2023/04/11 11:40:56;;;;;;;11.60;1.10;;;12.30;99.90;;;;;;4860443;29;20425;-91
2023/04/11 11:43:24;;;;;;;13.10;1.75;;;12.10;99.90;;;;;;4861775;29;20419;-90
2023/04/11 11:46:15;;;;;;;11.70;1.23;;;12.40;99.90;;;;;;4858828;29;20422;-89
2023/04/11 11:48:42;;;;;;;11.37;1.40;;;12.10;99.90;;;;;;4861622;29;20418;-94
2023/04/11 11:51:08;;;;;;;9.95;1.35;;;12.00;99.90;;;;;;4860331;29;20505;-93
2023/04/11 11:53:34;;;;;;;11.48;1.45;;;12.10;99.90;;;;;;4860279;29;20454;-95
2023/04/11 11:56:10;;;;;;;11.33;1.30;;;12.20;99.90;;;;;;4870760;29;20476;-92
2023/04/11 11:58:42;;;;;;;8.88;1.30;;;12.70;99.90;;;;;;4877565;29;20464;-92
2023/04/11 12:01:15;;;;;;;9.27;1.20;;;13.20;99.90;;;;;;4881192;29;20475;-91
2023/04/11 12:03:47;;;;;;;5.13;0.70;;;13.10;99.90;;;;;;4877211;29;20462;-95
2023/04/11 12:06:21;;;;;;;7.15;0.70;;;12.50;98.90;;;;;;4879807;29;20930;-94
2023/04/11 12:08:50;;;;;;;6.75;0.98;;;11.90;99.90;;;;;;4879342;29;20476;-92
2023/04/11 12:11:17;;;;;;;6.78;0.90;;;11.30;99.90;;;;;;4878928;29;20488;-89
2023/04/11 12:13:44;;;;;;;8.93;0.90;;;10.80;99.90;;;;;;4879289;29;20946;-92
2023/04/11 12:16:13;;;;;;;10.60;1.00;;;10.30;99.90;;;;;;4877753;29;20456;-93
2023/04/11 12:18:42;;;;;;;9.38;1.48;;;9.90;99.90;;;;;;4879718;29;20764;-92
2023/04/11 12:21:08;;;;;;;11.20;1.25;;;10.20;99.90;;;;;;4876935;29;20864;-91
2023/04/11 12:23:34;;;;;;;9.27;1.33;;;9.80;99.90;;;;;;4879696;29;20951;-91
2023/04/11 12:26:00;;;;;;;9.40;1.48;;;10.00;99.90;;;;;;4877424;29;20433;-93
2023/04/11 12:28:25;;;;;;;9.27;1.47;;;10.40;99.90;;;;;;4879455;29;20429;-93
2023/04/11 12:30:51;;;;;;;10.50;1.70;;;10.30;99.90;;;;;;4878957;29;20459;-93
2023/04/11 12:33:16;;;;;;;8.88;1.05;;;10.60;99.90;;;;;;4877754;29;20437;-90
2023/04/11 12:35:42;;;;;;;11.85;1.38;;;11.10;99.90;;;;;;4879337;29;20919;-92
2023/04/11 12:38:08;;;;;;;11.17;1.47;;;11.40;99.90;;;;;;4879094;29;20429;-91
2023/04/11 12:40:34;;;;;;;11.10;1.50;;;11.90;99.90;;;;;;4883220;29;20894;-92
2023/04/11 12:43:02;;;;;;;10.57;1.35;;;11.90;99.90;;;;;;4881121;29;20425;-93
2023/04/11 12:45:32;;;;;;;9.55;1.30;;;11.90;99.90;;;;;;4883537;29;20421;-93
2023/04/11 12:47:57;;;;;;;9.38;1.13;;;11.90;99.90;;;;;;4879925;29;20456;-94
2023/04/11 12:50:23;;;;;;;9.43;1.17;;;12.20;99.90;;;;;;4881413;29;20417;-91
2023/04/11 12:52:49;;;;;;;9.90;1.60;;;12.00;99.90;;;;;;4880772;29;20421;-92
2023/04/11 12:55:14;;;;;;;10.52;1.67;;;11.90;99.90;;;;;;4875788;29;20518;-90
2023/04/11 12:57:41;;;;;;;11.40;1.40;;;11.40;99.90;;;;;;4864378;29;20419;-93
2023/04/11 13:00:07;;;;;;;10.85;1.75;;;11.20;99.90;;;;;;4861560;29;20469;-89
2023/04/11 13:02:34;;;;;;;13.83;1.93;;;11.00;99.90;;;;;;4863760;29;20427;-90